sensor_id;sensor_type;location;lat;lon;timestamp;P1;durP1;ratioP1;P2;durP2;ratioP2
53040;SDS011;39326;42.650;23.248;2022-08-25T00:01:31;20.53;;;10.53;;
53040;SDS011;39326;42.650;23.248;2022-08-25T00:04:03;15.03;;;9.37;;
53040;SDS011;39326;42.650;23.248;2022-08-25T00:06:31;17.60;;;9.35;;
53040;SDS011;39326;42.650;23.248;2022-08-25T00:08:56;17.20;;;8.97;;
53040;SDS011;39326;42.650;23.248;2022-08-25T00:11:24;17.17;;;9.48;;
53040;SDS011;39326;42.650;23.248;2022-08-25T00:13:52;16.37;;;9.83;;
53040;SDS011;39326;42.650;23.248;2022-08-25T00:16:21;15.97;;;9.07;;
53040;SDS011;39326;42.650;23.248;2022-08-25T00:18:50;14.13;;;8.77;;
53040;SDS011;39326;42.650;23.248;2022-08-25T00:21:22;16.43;;;8.77;;
53040;SDS011;39326;42.650;23.248;2022-08-25T00:23:48;16.60;;;9.20;;
53040;SDS011;39326;42.650;23.248;2022-08-25T00:26:14;18.90;;;8.43;;
53040;SDS011;39326;42.650;23.248;2022-08-25T00:28:41;20.40;;;8.70;;
53040;SDS011;39326;42.650;23.248;2022-08-25T00:31:10;13.63;;;8.33;;
53040;SDS011;39326;42.650;23.248;2022-08-25T00:33:38;14.37;;;8.40;;
53040;SDS011;39326;42.650;23.248;2022-08-25T00:36:04;17.50;;;8.87;;
53040;SDS011;39326;42.650;23.248;2022-08-25T00:38:30;14.27;;;8.20;;
53040;SDS011;39326;42.650;23.248;2022-08-25T00:40:55;14.70;;;8.30;;
53040;SDS011;39326;42.650;23.248;2022-08-25T00:46:05;16.87;;;8.40;;
53040;SDS011;39326;42.650;23.248;2022-08-25T00:48:32;17.20;;;9.23;;
53040;SDS011;39326;42.650;23.248;2022-08-25T00:50:58;13.23;;;8.47;;
53040;SDS011;39326;42.650;23.248;2022-08-25T00:53:24;19.60;;;9.17;;
53040;SDS011;39326;42.650;23.248;2022-08-25T00:55:50;19.57;;;9.37;;
53040;SDS011;39326;42.650;23.248;2022-08-25T00:58:17;14.40;;;8.30;;
53040;SDS011;39326;42.650;23.248;2022-08-25T01:00:47;15.07;;;7.97;;
53040;SDS011;39326;42.650;23.248;2022-08-25T01:03:14;18.73;;;8.63;;
53040;SDS011;39326;42.650;23.248;2022-08-25T01:05:43;17.65;;;8.43;;
53040;SDS011;39326;42.650;23.248;2022-08-25T01:08:09;14.00;;;8.77;;
53040;SDS011;39326;42.650;23.248;2022-08-25T01:10:36;21.63;;;9.10;;
53040;SDS011;39326;42.650;23.248;2022-08-25T01:13:10;15.53;;;8.90;;
53040;SDS011;39326;42.650;23.248;2022-08-25T01:15:45;16.27;;;9.00;;
53040;SDS011;39326;42.650;23.248;2022-08-25T01:18:13;14.98;;;10.55;;
53040;SDS011;39326;42.650;23.248;2022-08-25T01:20:39;17.87;;;11.53;;
53040;SDS011;39326;42.650;23.248;2022-08-25T01:23:05;16.13;;;13.23;;
53040;SDS011;39326;42.650;23.248;2022-08-25T01:28:09;16.77;;;13.27;;
53040;SDS011;39326;42.650;23.248;2022-08-25T01:30:35;19.52;;;13.95;;
53040;SDS011;39326;42.650;23.248;2022-08-25T01:33:02;21.20;;;14.90;;
53040;SDS011;39326;42.650;23.248;2022-08-25T01:35:32;18.58;;;15.60;;
53040;SDS011;39326;42.650;23.248;2022-08-25T01:37:59;20.05;;;15.57;;
53040;SDS011;39326;42.650;23.248;2022-08-25T01:40:25;19.03;;;15.93;;
53040;SDS011;39326;42.650;23.248;2022-08-25T01:45:35;15.95;;;13.07;;
53040;SDS011;39326;42.650;23.248;2022-08-25T01:48:01;19.97;;;12.07;;
53040;SDS011;39326;42.650;23.248;2022-08-25T01:50:27;16.88;;;11.90;;
53040;SDS011;39326;42.650;23.248;2022-08-25T01:52:57;18.23;;;11.70;;
53040;SDS011;39326;42.650;23.248;2022-08-25T01:55:43;16.93;;;11.83;;
53040;SDS011;39326;42.650;23.248;2022-08-25T01:58:26;15.77;;;10.50;;
53040;SDS011;39326;42.650;23.248;2022-08-25T02:00:54;22.30;;;11.57;;
53040;SDS011;39326;42.650;23.248;2022-08-25T02:03:21;20.63;;;12.23;;
53040;SDS011;39326;42.650;23.248;2022-08-25T02:05:49;16.73;;;11.43;;
53040;SDS011;39326;42.650;23.248;2022-08-25T02:08:15;15.98;;;11.00;;
53040;SDS011;39326;42.650;23.248;2022-08-25T02:10:41;14.07;;;10.90;;
53040;SDS011;39326;42.650;23.248;2022-08-25T02:13:08;15.33;;;10.53;;
53040;SDS011;39326;42.650;23.248;2022-08-25T02:15:34;15.75;;;11.93;;
53040;SDS011;39326;42.650;23.248;2022-08-25T02:18:03;19.10;;;11.73;;
53040;SDS011;39326;42.650;23.248;2022-08-25T02:20:29;16.23;;;11.50;;
53040;SDS011;39326;42.650;23.248;2022-08-25T02:22:54;18.23;;;11.33;;
53040;SDS011;39326;42.650;23.248;2022-08-25T02:25:20;17.00;;;11.70;;
53040;SDS011;39326;42.650;23.248;2022-08-25T02:27:45;15.02;;;11.07;;
53040;SDS011;39326;42.650;23.248;2022-08-25T02:30:12;19.52;;;11.77;;
53040;SDS011;39326;42.650;23.248;2022-08-25T02:32:38;21.55;;;11.82;;
53040;SDS011;39326;42.650;23.248;2022-08-25T02:35:04;17.07;;;12.00;;
53040;SDS011;39326;42.650;23.248;2022-08-25T02:37:31;14.77;;;10.90;;
53040;SDS011;39326;42.650;23.248;2022-08-25T02:39:56;18.00;;;11.60;;
53040;SDS011;39326;42.650;23.248;2022-08-25T02:42:22;21.00;;;11.90;;
53040;SDS011;39326;42.650;23.248;2022-08-25T02:44:48;15.07;;;11.65;;
53040;SDS011;39326;42.650;23.248;2022-08-25T02:47:14;16.17;;;11.63;;
53040;SDS011;39326;42.650;23.248;2022-08-25T02:49:40;19.13;;;11.53;;
53040;SDS011;39326;42.650;23.248;2022-08-25T02:52:06;16.30;;;11.80;;
53040;SDS011;39326;42.650;23.248;2022-08-25T02:54:32;16.30;;;12.20;;
53040;SDS011;39326;42.650;23.248;2022-08-25T02:56:58;15.73;;;11.40;;
53040;SDS011;39326;42.650;23.248;2022-08-25T02:59:24;15.23;;;12.20;;
53040;SDS011;39326;42.650;23.248;2022-08-25T03:01:49;18.55;;;11.70;;
53040;SDS011;39326;42.650;23.248;2022-08-25T03:04:15;16.60;;;11.18;;
53040;SDS011;39326;42.650;23.248;2022-08-25T03:06:40;16.87;;;11.23;;
53040;SDS011;39326;42.650;23.248;2022-08-25T03:09:06;17.57;;;11.67;;
53040;SDS011;39326;42.650;23.248;2022-08-25T03:11:32;13.10;;;11.07;;
53040;SDS011;39326;42.650;23.248;2022-08-25T03:13:57;18.48;;;11.38;;
53040;SDS011;39326;42.650;23.248;2022-08-25T03:16:23;17.83;;;10.88;;
53040;SDS011;39326;42.650;23.248;2022-08-25T03:18:49;16.65;;;11.35;;
53040;SDS011;39326;42.650;23.248;2022-08-25T03:21:15;18.30;;;12.67;;
53040;SDS011;39326;42.650;23.248;2022-08-25T03:23:41;18.07;;;11.80;;
53040;SDS011;39326;42.650;23.248;2022-08-25T03:26:07;15.60;;;10.50;;
53040;SDS011;39326;42.650;23.248;2022-08-25T03:28:52;17.88;;;10.93;;
53040;SDS011;39326;42.650;23.248;2022-08-25T03:31:19;13.60;;;10.50;;
53040;SDS011;39326;42.650;23.248;2022-08-25T03:33:50;15.35;;;11.43;;
53040;SDS011;39326;42.650;23.248;2022-08-25T03:36:16;12.40;;;10.90;;
53040;SDS011;39326;42.650;23.248;2022-08-25T03:38:41;16.70;;;10.55;;
53040;SDS011;39326;42.650;23.248;2022-08-25T03:41:17;14.63;;;11.97;;
53040;SDS011;39326;42.650;23.248;2022-08-25T03:43:47;15.68;;;11.18;;
53040;SDS011;39326;42.650;23.248;2022-08-25T03:46:21;15.90;;;11.93;;
53040;SDS011;39326;42.650;23.248;2022-08-25T03:48:49;15.70;;;11.40;;
53040;SDS011;39326;42.650;23.248;2022-08-25T03:51:50;15.97;;;11.63;;
53040;SDS011;39326;42.650;23.248;2022-08-25T03:54:11;18.25;;;11.30;;
53040;SDS011;39326;42.650;23.248;2022-08-25T03:56:36;16.80;;;11.33;;
53040;SDS011;39326;42.650;23.248;2022-08-25T03:59:02;17.03;;;11.90;;
53040;SDS011;39326;42.650;23.248;2022-08-25T04:01:27;18.63;;;12.03;;
53040;SDS011;39326;42.650;23.248;2022-08-25T04:03:53;16.15;;;11.40;;
53040;SDS011;39326;42.650;23.248;2022-08-25T04:06:18;16.15;;;11.68;;
53040;SDS011;39326;42.650;23.248;2022-08-25T04:08:44;15.53;;;11.17;;
53040;SDS011;39326;42.650;23.248;2022-08-25T04:11:17;14.97;;;11.50;;
53040;SDS011;39326;42.650;23.248;2022-08-25T04:13:46;20.73;;;11.77;;
53040;SDS011;39326;42.650;23.248;2022-08-25T04:16:13;19.60;;;12.65;;
53040;SDS011;39326;42.650;23.248;2022-08-25T04:18:41;17.27;;;13.00;;
53040;SDS011;39326;42.650;23.248;2022-08-25T04:21:07;17.23;;;12.47;;
53040;SDS011;39326;42.650;23.248;2022-08-25T04:23:34;19.30;;;13.30;;
53040;SDS011;39326;42.650;23.248;2022-08-25T04:26:01;20.30;;;12.50;;
53040;SDS011;39326;42.650;23.248;2022-08-25T04:28:31;17.33;;;12.83;;
53040;SDS011;39326;42.650;23.248;2022-08-25T04:30:57;19.33;;;12.53;;
53040;SDS011;39326;42.650;23.248;2022-08-25T04:33:23;16.33;;;12.23;;
53040;SDS011;39326;42.650;23.248;2022-08-25T04:35:48;17.65;;;12.10;;
53040;SDS011;39326;42.650;23.248;2022-08-25T04:38:14;17.40;;;12.27;;
53040;SDS011;39326;42.650;23.248;2022-08-25T04:40:40;15.63;;;11.30;;
53040;SDS011;39326;42.650;23.248;2022-08-25T04:43:05;12.70;;;10.90;;
53040;SDS011;39326;42.650;23.248;2022-08-25T04:45:34;17.65;;;11.43;;
53040;SDS011;39326;42.650;23.248;2022-08-25T04:48:01;15.88;;;11.80;;
53040;SDS011;39326;42.650;23.248;2022-08-25T04:50:27;18.27;;;11.73;;
53040;SDS011;39326;42.650;23.248;2022-08-25T04:52:53;15.53;;;11.10;;
53040;SDS011;39326;42.650;23.248;2022-08-25T04:55:18;15.83;;;11.27;;
53040;SDS011;39326;42.650;23.248;2022-08-25T04:57:44;10.93;;;9.70;;
53040;SDS011;39326;42.650;23.248;2022-08-25T05:00:10;15.97;;;10.87;;
53040;SDS011;39326;42.650;23.248;2022-08-25T05:02:36;12.60;;;10.88;;
53040;SDS011;39326;42.650;23.248;2022-08-25T05:05:01;15.70;;;11.73;;
53040;SDS011;39326;42.650;23.248;2022-08-25T05:07:28;15.30;;;11.00;;
53040;SDS011;39326;42.650;23.248;2022-08-25T05:09:53;13.88;;;10.43;;
53040;SDS011;39326;42.650;23.248;2022-08-25T05:12:19;17.20;;;11.70;;
53040;SDS011;39326;42.650;23.248;2022-08-25T05:14:44;14.53;;;11.70;;
53040;SDS011;39326;42.650;23.248;2022-08-25T05:17:10;16.37;;;10.63;;
53040;SDS011;39326;42.650;23.248;2022-08-25T05:19:35;14.35;;;9.95;;
53040;SDS011;39326;42.650;23.248;2022-08-25T05:22:01;18.97;;;10.73;;
53040;SDS011;39326;42.650;23.248;2022-08-25T05:24:26;16.87;;;10.27;;
53040;SDS011;39326;42.650;23.248;2022-08-25T05:26:52;18.17;;;10.70;;
53040;SDS011;39326;42.650;23.248;2022-08-25T05:29:17;14.55;;;10.57;;
53040;SDS011;39326;42.650;23.248;2022-08-25T05:31:43;15.77;;;10.67;;
53040;SDS011;39326;42.650;23.248;2022-08-25T05:34:09;14.55;;;10.15;;
53040;SDS011;39326;42.650;23.248;2022-08-25T05:36:36;19.57;;;10.07;;
53040;SDS011;39326;42.650;23.248;2022-08-25T05:39:06;18.43;;;10.40;;
53040;SDS011;39326;42.650;23.248;2022-08-25T05:41:33;20.60;;;10.25;;
53040;SDS011;39326;42.650;23.248;2022-08-25T05:43:58;15.98;;;9.35;;
53040;SDS011;39326;42.650;23.248;2022-08-25T05:46:24;14.97;;;10.03;;
53040;SDS011;39326;42.650;23.248;2022-08-25T05:48:50;13.93;;;9.75;;
53040;SDS011;39326;42.650;23.248;2022-08-25T05:51:16;17.73;;;10.00;;
53040;SDS011;39326;42.650;23.248;2022-08-25T05:53:43;13.97;;;9.67;;
53040;SDS011;39326;42.650;23.248;2022-08-25T05:56:11;16.33;;;10.60;;
53040;SDS011;39326;42.650;23.248;2022-08-25T05:58:40;17.65;;;10.02;;
53040;SDS011;39326;42.650;23.248;2022-08-25T06:01:07;15.55;;;9.85;;
53040;SDS011;39326;42.650;23.248;2022-08-25T06:03:52;13.40;;;9.38;;
53040;SDS011;39326;42.650;23.248;2022-08-25T06:06:19;13.50;;;9.00;;
53040;SDS011;39326;42.650;23.248;2022-08-25T06:08:46;18.17;;;10.10;;
53040;SDS011;39326;42.650;23.248;2022-08-25T06:11:12;13.57;;;9.95;;
53040;SDS011;39326;42.650;23.248;2022-08-25T06:13:39;17.25;;;9.93;;
53040;SDS011;39326;42.650;23.248;2022-08-25T06:16:05;15.50;;;9.52;;
53040;SDS011;39326;42.650;23.248;2022-08-25T06:18:30;16.88;;;9.57;;
53040;SDS011;39326;42.650;23.248;2022-08-25T06:20:56;14.55;;;9.23;;
53040;SDS011;39326;42.650;23.248;2022-08-25T06:23:22;13.95;;;9.45;;
53040;SDS011;39326;42.650;23.248;2022-08-25T06:25:48;14.02;;;9.77;;
53040;SDS011;39326;42.650;23.248;2022-08-25T06:28:15;14.90;;;9.88;;
53040;SDS011;39326;42.650;23.248;2022-08-25T06:30:40;13.25;;;9.07;;
53040;SDS011;39326;42.650;23.248;2022-08-25T06:33:05;13.73;;;9.73;;
53040;SDS011;39326;42.650;23.248;2022-08-25T06:35:31;13.43;;;9.45;;
53040;SDS011;39326;42.650;23.248;2022-08-25T06:37:56;15.57;;;9.35;;
53040;SDS011;39326;42.650;23.248;2022-08-25T06:40:22;13.20;;;9.60;;
53040;SDS011;39326;42.650;23.248;2022-08-25T06:42:49;13.15;;;9.52;;
53040;SDS011;39326;42.650;23.248;2022-08-25T06:45:14;13.23;;;9.70;;
53040;SDS011;39326;42.650;23.248;2022-08-25T06:47:40;9.70;;;8.68;;
53040;SDS011;39326;42.650;23.248;2022-08-25T06:50:05;16.35;;;9.90;;
53040;SDS011;39326;42.650;23.248;2022-08-25T06:52:31;13.50;;;9.30;;
53040;SDS011;39326;42.650;23.248;2022-08-25T06:54:57;15.10;;;9.93;;
53040;SDS011;39326;42.650;23.248;2022-08-25T06:57:22;13.80;;;9.00;;
53040;SDS011;39326;42.650;23.248;2022-08-25T06:59:47;16.73;;;9.23;;
53040;SDS011;39326;42.650;23.248;2022-08-25T07:02:13;15.27;;;9.95;;
53040;SDS011;39326;42.650;23.248;2022-08-25T07:04:38;16.95;;;9.45;;
53040;SDS011;39326;42.650;23.248;2022-08-25T07:07:04;12.60;;;10.15;;
53040;SDS011;39326;42.650;23.248;2022-08-25T07:09:29;17.17;;;10.18;;
53040;SDS011;39326;42.650;23.248;2022-08-25T07:11:55;15.98;;;9.85;;
53040;SDS011;39326;42.650;23.248;2022-08-25T07:14:21;15.88;;;9.68;;
53040;SDS011;39326;42.650;23.248;2022-08-25T07:16:46;16.60;;;9.50;;
53040;SDS011;39326;42.650;23.248;2022-08-25T07:19:12;15.18;;;8.88;;
53040;SDS011;39326;42.650;23.248;2022-08-25T07:21:39;18.33;;;9.18;;
53040;SDS011;39326;42.650;23.248;2022-08-25T07:24:07;17.15;;;9.45;;
53040;SDS011;39326;42.650;23.248;2022-08-25T07:26:34;14.65;;;9.77;;
53040;SDS011;39326;42.650;23.248;2022-08-25T07:29:02;17.10;;;9.50;;
53040;SDS011;39326;42.650;23.248;2022-08-25T07:31:29;15.43;;;9.85;;
53040;SDS011;39326;42.650;23.248;2022-08-25T07:33:55;19.48;;;9.02;;
53040;SDS011;39326;42.650;23.248;2022-08-25T07:36:40;16.20;;;9.77;;
53040;SDS011;39326;42.650;23.248;2022-08-25T07:39:06;15.88;;;8.95;;
53040;SDS011;39326;42.650;23.248;2022-08-25T07:41:35;16.08;;;8.52;;
53040;SDS011;39326;42.650;23.248;2022-08-25T07:44:01;16.30;;;8.80;;
53040;SDS011;39326;42.650;23.248;2022-08-25T07:46:28;17.77;;;9.13;;
53040;SDS011;39326;42.650;23.248;2022-08-25T07:48:53;18.38;;;8.85;;
53040;SDS011;39326;42.650;23.248;2022-08-25T07:51:19;18.52;;;8.98;;
53040;SDS011;39326;42.650;23.248;2022-08-25T07:53:44;16.58;;;8.90;;
53040;SDS011;39326;42.650;23.248;2022-08-25T07:56:11;25.42;;;8.98;;
53040;SDS011;39326;42.650;23.248;2022-08-25T07:58:38;20.58;;;8.95;;
53040;SDS011;39326;42.650;23.248;2022-08-25T08:01:05;15.30;;;8.77;;
53040;SDS011;39326;42.650;23.248;2022-08-25T08:03:31;17.83;;;7.90;;
53040;SDS011;39326;42.650;23.248;2022-08-25T08:06:00;19.60;;;8.32;;
53040;SDS011;39326;42.650;23.248;2022-08-25T08:08:26;25.85;;;7.97;;
53040;SDS011;39326;42.650;23.248;2022-08-25T08:10:52;18.60;;;7.85;;
53040;SDS011;39326;42.650;23.248;2022-08-25T08:13:18;18.63;;;8.90;;
53040;SDS011;39326;42.650;23.248;2022-08-25T08:15:44;18.15;;;8.13;;
53040;SDS011;39326;42.650;23.248;2022-08-25T08:18:10;23.92;;;8.82;;
53040;SDS011;39326;42.650;23.248;2022-08-25T08:20:36;20.27;;;7.65;;
53040;SDS011;39326;42.650;23.248;2022-08-25T08:23:01;22.20;;;7.35;;
53040;SDS011;39326;42.650;23.248;2022-08-25T08:25:27;18.77;;;7.88;;
53040;SDS011;39326;42.650;23.248;2022-08-25T08:27:54;22.60;;;7.88;;
53040;SDS011;39326;42.650;23.248;2022-08-25T08:30:21;19.77;;;7.70;;
53040;SDS011;39326;42.650;23.248;2022-08-25T08:32:47;24.60;;;8.50;;
53040;SDS011;39326;42.650;23.248;2022-08-25T08:35:14;21.25;;;7.55;;
53040;SDS011;39326;42.650;23.248;2022-08-25T08:37:43;26.73;;;7.90;;
53040;SDS011;39326;42.650;23.248;2022-08-25T08:40:09;22.88;;;8.48;;
53040;SDS011;39326;42.650;23.248;2022-08-25T08:45:30;16.73;;;8.45;;
53040;SDS011;39326;42.650;23.248;2022-08-25T08:51:05;19.30;;;8.50;;
53040;SDS011;39326;42.650;23.248;2022-08-25T08:53:36;20.15;;;8.02;;
53040;SDS011;39326;42.650;23.248;2022-08-25T08:56:09;19.83;;;8.55;;
53040;SDS011;39326;42.650;23.248;2022-08-25T08:58:54;19.70;;;7.57;;
53040;SDS011;39326;42.650;23.248;2022-08-25T09:04:37;18.42;;;7.85;;
53040;SDS011;39326;42.650;23.248;2022-08-25T09:07:10;28.63;;;9.32;;
53040;SDS011;39326;42.650;23.248;2022-08-25T09:09:40;20.58;;;8.02;;
53040;SDS011;39326;42.650;23.248;2022-08-25T09:14:53;29.85;;;8.48;;
53040;SDS011;39326;42.650;23.248;2022-08-25T09:28:34;19.35;;;7.97;;
53040;SDS011;39326;42.650;23.248;2022-08-25T09:31:17;17.52;;;7.55;;
53040;SDS011;39326;42.650;23.248;2022-08-25T09:33:44;21.00;;;8.13;;
53040;SDS011;39326;42.650;23.248;2022-08-25T09:36:09;24.60;;;7.78;;
53040;SDS011;39326;42.650;23.248;2022-08-25T09:38:35;22.33;;;8.05;;
53040;SDS011;39326;42.650;23.248;2022-08-25T09:41:00;26.02;;;7.90;;
53040;SDS011;39326;42.650;23.248;2022-08-25T09:43:34;22.73;;;7.45;;
53040;SDS011;39326;42.650;23.248;2022-08-25T09:46:07;23.35;;;7.55;;
53040;SDS011;39326;42.650;23.248;2022-08-25T09:48:52;21.38;;;7.47;;
53040;SDS011;39326;42.650;23.248;2022-08-25T09:56:21;19.70;;;6.70;;
53040;SDS011;39326;42.650;23.248;2022-08-25T09:58:49;21.48;;;7.05;;
53040;SDS011;39326;42.650;23.248;2022-08-25T10:03:59;21.88;;;7.30;;
53040;SDS011;39326;42.650;23.248;2022-08-25T10:06:32;19.58;;;6.68;;
53040;SDS011;39326;42.650;23.248;2022-08-25T10:09:10;22.20;;;7.57;;
53040;SDS011;39326;42.650;23.248;2022-08-25T10:11:47;21.48;;;6.90;;
53040;SDS011;39326;42.650;23.248;2022-08-25T10:16:44;18.17;;;6.10;;
53040;SDS011;39326;42.650;23.248;2022-08-25T10:21:45;19.23;;;6.20;;
53040;SDS011;39326;42.650;23.248;2022-08-25T10:24:59;18.13;;;5.28;;
53040;SDS011;39326;42.650;23.248;2022-08-25T10:32:52;21.77;;;5.32;;
53040;SDS011;39326;42.650;23.248;2022-08-25T10:35:22;20.13;;;5.50;;
53040;SDS011;39326;42.650;23.248;2022-08-25T10:45:30;25.42;;;5.05;;
53040;SDS011;39326;42.650;23.248;2022-08-25T10:50:43;20.55;;;5.05;;
53040;SDS011;39326;42.650;23.248;2022-08-25T10:53:27;16.63;;;4.50;;
53040;SDS011;39326;42.650;23.248;2022-08-25T10:56:15;15.15;;;4.72;;
53040;SDS011;39326;42.650;23.248;2022-08-25T10:58:59;16.98;;;4.47;;
53040;SDS011;39326;42.650;23.248;2022-08-25T11:04:18;20.30;;;4.97;;
53040;SDS011;39326;42.650;23.248;2022-08-25T11:09:27;18.98;;;5.07;;
53040;SDS011;39326;42.650;23.248;2022-08-25T11:12:03;17.73;;;4.80;;
53040;SDS011;39326;42.650;23.248;2022-08-25T11:14:38;27.33;;;5.30;;
53040;SDS011;39326;42.650;23.248;2022-08-25T11:20:11;18.02;;;4.63;;
53040;SDS011;39326;42.650;23.248;2022-08-25T11:22:46;22.60;;;5.13;;
53040;SDS011;39326;42.650;23.248;2022-08-25T11:30:24;17.83;;;4.57;;
53040;SDS011;39326;42.650;23.248;2022-08-25T11:32:50;15.77;;;5.10;;
53040;SDS011;39326;42.650;23.248;2022-08-25T11:35:19;17.88;;;5.43;;
53040;SDS011;39326;42.650;23.248;2022-08-25T11:37:56;17.95;;;4.80;;
53040;SDS011;39326;42.650;23.248;2022-08-25T11:46:08;20.42;;;4.63;;
53040;SDS011;39326;42.650;23.248;2022-08-25T11:49:02;13.68;;;4.70;;
53040;SDS011;39326;42.650;23.248;2022-08-25T11:51:55;10.15;;;4.75;;
53040;SDS011;39326;42.650;23.248;2022-08-25T11:54:33;16.58;;;4.85;;
53040;SDS011;39326;42.650;23.248;2022-08-25T11:57:29;17.70;;;5.28;;
53040;SDS011;39326;42.650;23.248;2022-08-25T11:59:59;10.77;;;5.35;;
53040;SDS011;39326;42.650;23.248;2022-08-25T12:02:33;13.43;;;4.28;;
53040;SDS011;39326;42.650;23.248;2022-08-25T12:15:27;15.80;;;5.05;;
53040;SDS011;39326;42.650;23.248;2022-08-25T12:25:52;9.45;;;4.47;;
53040;SDS011;39326;42.650;23.248;2022-08-25T12:28:25;14.32;;;5.43;;
53040;SDS011;39326;42.650;23.248;2022-08-25T12:30:55;14.32;;;4.60;;
53040;SDS011;39326;42.650;23.248;2022-08-25T12:36:30;14.30;;;4.88;;
53040;SDS011;39326;42.650;23.248;2022-08-25T12:39:59;16.17;;;4.70;;
53040;SDS011;39326;42.650;23.248;2022-08-25T12:42:01;13.27;;;4.70;;
53040;SDS011;39326;42.650;23.248;2022-08-25T12:49:44;13.43;;;4.20;;
53040;SDS011;39326;42.650;23.248;2022-08-25T12:52:17;15.50;;;4.63;;
53040;SDS011;39326;42.650;23.248;2022-08-25T12:59:58;14.45;;;4.47;;
53040;SDS011;39326;42.650;23.248;2022-08-25T13:13:38;13.52;;;4.13;;
53040;SDS011;39326;42.650;23.248;2022-08-25T13:16:22;17.08;;;4.72;;
53040;SDS011;39326;42.650;23.248;2022-08-25T13:18:50;12.32;;;3.97;;
53040;SDS011;39326;42.650;23.248;2022-08-25T13:21:21;11.65;;;3.92;;
53040;SDS011;39326;42.650;23.248;2022-08-25T13:23:52;14.82;;;4.20;;
53040;SDS011;39326;42.650;23.248;2022-08-25T13:26:22;19.30;;;4.72;;
53040;SDS011;39326;42.650;23.248;2022-08-25T13:28:54;12.00;;;4.03;;
53040;SDS011;39326;42.650;23.248;2022-08-25T13:31:23;11.10;;;3.67;;
53040;SDS011;39326;42.650;23.248;2022-08-25T13:33:54;13.00;;;4.25;;
53040;SDS011;39326;42.650;23.248;2022-08-25T13:36:23;14.55;;;4.53;;
53040;SDS011;39326;42.650;23.248;2022-08-25T13:39:13;14.73;;;5.07;;
53040;SDS011;39326;42.650;23.248;2022-08-25T13:41:54;15.63;;;4.10;;
53040;SDS011;39326;42.650;23.248;2022-08-25T13:44:23;14.35;;;4.40;;
53040;SDS011;39326;42.650;23.248;2022-08-25T13:47:06;13.32;;;4.57;;
53040;SDS011;39326;42.650;23.248;2022-08-25T13:49:33;14.25;;;5.00;;
53040;SDS011;39326;42.650;23.248;2022-08-25T13:51:59;14.80;;;4.70;;
53040;SDS011;39326;42.650;23.248;2022-08-25T13:54:38;12.02;;;4.40;;
53040;SDS011;39326;42.650;23.248;2022-08-25T13:59:51;10.07;;;4.18;;
53040;SDS011;39326;42.650;23.248;2022-08-25T14:05:12;17.35;;;4.40;;
53040;SDS011;39326;42.650;23.248;2022-08-25T14:07:51;18.23;;;4.90;;
53040;SDS011;39326;42.650;23.248;2022-08-25T14:10:38;16.55;;;4.63;;
53040;SDS011;39326;42.650;23.248;2022-08-25T14:13:10;16.30;;;4.72;;
53040;SDS011;39326;42.650;23.248;2022-08-25T14:15:36;15.40;;;4.35;;
53040;SDS011;39326;42.650;23.248;2022-08-25T14:20:52;15.23;;;5.13;;
53040;SDS011;39326;42.650;23.248;2022-08-25T14:23:21;13.85;;;4.55;;
53040;SDS011;39326;42.650;23.248;2022-08-25T14:25:51;19.70;;;5.15;;
53040;SDS011;39326;42.650;23.248;2022-08-25T14:28:19;14.05;;;4.22;;
53040;SDS011;39326;42.650;23.248;2022-08-25T14:30:53;17.63;;;5.07;;
53040;SDS011;39326;42.650;23.248;2022-08-25T14:33:32;15.07;;;4.53;;
53040;SDS011;39326;42.650;23.248;2022-08-25T14:36:01;17.30;;;4.57;;
53040;SDS011;39326;42.650;23.248;2022-08-25T14:38:29;15.48;;;4.47;;
53040;SDS011;39326;42.650;23.248;2022-08-25T14:40:55;13.85;;;4.90;;
53040;SDS011;39326;42.650;23.248;2022-08-25T14:43:20;13.88;;;4.78;;
53040;SDS011;39326;42.650;23.248;2022-08-25T14:45:46;15.80;;;4.60;;
53040;SDS011;39326;42.650;23.248;2022-08-25T14:48:16;18.27;;;4.78;;
53040;SDS011;39326;42.650;23.248;2022-08-25T14:50:53;10.52;;;4.28;;
53040;SDS011;39326;42.650;23.248;2022-08-25T14:53:22;12.23;;;4.43;;
53040;SDS011;39326;42.650;23.248;2022-08-25T14:55:48;11.52;;;4.93;;
53040;SDS011;39326;42.650;23.248;2022-08-25T14:58:17;15.00;;;4.32;;
53040;SDS011;39326;42.650;23.248;2022-08-25T15:00:43;14.20;;;4.50;;
53040;SDS011;39326;42.650;23.248;2022-08-25T15:03:11;12.27;;;4.82;;
53040;SDS011;39326;42.650;23.248;2022-08-25T15:05:40;15.55;;;4.53;;
53040;SDS011;39326;42.650;23.248;2022-08-25T15:08:06;12.60;;;3.85;;
53040;SDS011;39326;42.650;23.248;2022-08-25T15:10:52;17.05;;;4.40;;
53040;SDS011;39326;42.650;23.248;2022-08-25T15:13:18;16.40;;;4.47;;
53040;SDS011;39326;42.650;23.248;2022-08-25T15:15:45;14.88;;;4.80;;
53040;SDS011;39326;42.650;23.248;2022-08-25T15:18:11;15.27;;;4.80;;
53040;SDS011;39326;42.650;23.248;2022-08-25T15:20:37;19.70;;;4.70;;
53040;SDS011;39326;42.650;23.248;2022-08-25T15:23:03;15.48;;;4.75;;
53040;SDS011;39326;42.650;23.248;2022-08-25T15:25:28;13.48;;;4.68;;
53040;SDS011;39326;42.650;23.248;2022-08-25T15:27:54;15.07;;;4.57;;
53040;SDS011;39326;42.650;23.248;2022-08-25T15:30:20;15.93;;;4.93;;
53040;SDS011;39326;42.650;23.248;2022-08-25T15:32:46;17.75;;;6.40;;
53040;SDS011;39326;42.650;23.248;2022-08-25T15:35:11;19.65;;;5.65;;
53040;SDS011;39326;42.650;23.248;2022-08-25T15:37:37;16.75;;;5.10;;
53040;SDS011;39326;42.650;23.248;2022-08-25T15:40:03;14.90;;;5.18;;
53040;SDS011;39326;42.650;23.248;2022-08-25T15:42:29;12.57;;;5.47;;
53040;SDS011;39326;42.650;23.248;2022-08-25T15:44:55;15.75;;;5.47;;
53040;SDS011;39326;42.650;23.248;2022-08-25T15:47:21;13.95;;;5.57;;
53040;SDS011;39326;42.650;23.248;2022-08-25T15:49:48;13.35;;;5.63;;
53040;SDS011;39326;42.650;23.248;2022-08-25T15:52:13;14.57;;;5.05;;
53040;SDS011;39326;42.650;23.248;2022-08-25T15:54:39;14.48;;;5.32;;
53040;SDS011;39326;42.650;23.248;2022-08-25T15:57:04;11.18;;;4.15;;
53040;SDS011;39326;42.650;23.248;2022-08-25T15:59:30;11.48;;;4.22;;
53040;SDS011;39326;42.650;23.248;2022-08-25T16:01:55;19.67;;;4.95;;
53040;SDS011;39326;42.650;23.248;2022-08-25T16:04:22;13.55;;;4.53;;
53040;SDS011;39326;42.650;23.248;2022-08-25T16:06:49;16.98;;;5.20;;
53040;SDS011;39326;42.650;23.248;2022-08-25T16:09:16;15.60;;;5.05;;
53040;SDS011;39326;42.650;23.248;2022-08-25T16:11:42;15.10;;;5.13;;
53040;SDS011;39326;42.650;23.248;2022-08-25T16:14:08;15.60;;;5.15;;
53040;SDS011;39326;42.650;23.248;2022-08-25T16:16:35;21.85;;;5.93;;
53040;SDS011;39326;42.650;23.248;2022-08-25T16:19:02;20.50;;;6.05;;
53040;SDS011;39326;42.650;23.248;2022-08-25T16:21:29;15.50;;;4.80;;
53040;SDS011;39326;42.650;23.248;2022-08-25T16:23:58;14.95;;;4.85;;
53040;SDS011;39326;42.650;23.248;2022-08-25T16:26:26;18.60;;;5.18;;
53040;SDS011;39326;42.650;23.248;2022-08-25T16:28:52;17.88;;;5.40;;
53040;SDS011;39326;42.650;23.248;2022-08-25T16:31:18;16.67;;;4.97;;
53040;SDS011;39326;42.650;23.248;2022-08-25T16:33:43;12.90;;;4.93;;
53040;SDS011;39326;42.650;23.248;2022-08-25T16:36:10;12.00;;;4.95;;
53040;SDS011;39326;42.650;23.248;2022-08-25T16:38:39;19.55;;;4.90;;